Time;durP1;ratioP1;P1;durP2;ratioP2;P2;SDS_P1;SDS_P2;PMS_P1;PMS_P2;Temp;Humidity;BMP_temperature;BMP_pressure;BME280_temperature;BME280_humidity;BME280_pressure;Samples;Min_cycle;Max_cycle;Signal;HPM_P1;HPM_P2
2022/06/30 00:00:17;;;;;;;;;12.50;11.00;;;;;26.06;48.20;100738.91;146609;679;46010;-82
2022/06/30 00:03:09;;;;;;;;;13.00;11.00;;;;;26.00;48.23;100739.00;146604;672;46008;-73
2022/06/30 00:06:01;;;;;;;;;10.25;8.25;;;;;25.94;48.66;100726.66;146610;622;47010;-72
2022/06/30 00:08:53;;;;;;;;;8.00;8.00;;;;;25.92;48.90;100731.13;146609;564;46018;-77
2022/06/30 00:11:46;;;;;;;;;11.00;9.75;;;;;25.93;48.95;100727.56;146612;673;46010;-76
2022/06/30 00:14:38;;;;;;;;;10.50;10.50;;;;;25.87;48.61;100726.75;146610;638;46010;-74
2022/06/30 00:17:30;;;;;;;;;11.00;10.00;;;;;25.76;49.01;100727.75;146611;616;46010;-72
2022/06/30 00:20:22;;;;;;;;;9.00;8.00;;;;;25.65;49.24;100732.28;146613;577;46008;-72
2022/06/30 00:23:14;;;;;;;;;10.50;9.75;;;;;25.54;49.49;100735.03;146611;642;46018;-72
2022/06/30 00:26:07;;;;;;;;;10.50;10.25;;;;;25.45;49.94;100735.16;146609;604;46008;-76
2022/06/30 00:28:59;;;;;;;;;11.25;11.00;;;;;25.37;50.20;100736.97;146611;565;46011;-78
2022/06/30 00:31:52;;;;;;;;;9.00;8.75;;;;;25.29;50.29;100737.03;146611;578;46018;-71
2022/06/30 00:34:44;;;;;;;;;11.00;9.50;;;;;25.23;50.34;100733.56;146610;702;46010;-72
2022/06/30 00:37:36;;;;;;;;;9.50;9.50;;;;;25.16;50.18;100735.37;146612;681;46018;-72
2022/06/30 00:40:29;;;;;;;;;13.50;10.75;;;;;25.10;50.58;100730.97;146606;624;46018;-72
2022/06/30 00:43:21;;;;;;;;;9.00;9.00;;;;;25.02;51.22;100731.97;146617;674;46010;-72
2022/06/30 00:46:13;;;;;;;;;11.50;10.00;;;;;24.93;51.65;100732.03;146614;575;46018;-71
2022/06/30 00:49:06;;;;;;;;;10.50;10.50;;;;;23.97;51.76;100583.31;146606;571;46018;-72
2022/06/30 00:51:58;;;;;;;;;8.75;8.75;;;;;24.78;51.94;100727.72;146613;570;46021;-71
2022/06/30 00:54:52;;;;;;;;;8.75;8.50;;;;;24.71;52.03;100718.91;146610;675;46018;-70
2022/06/30 00:57:46;;;;;;;;;11.25;9.00;;;;;24.68;51.71;100724.25;146606;688;46019;-67
2022/06/30 01:00:42;;;;;;;;;9.00;8.25;;;;;24.69;51.55;100718.03;146609;617;46018;-67
2022/06/30 01:03:38;;;;;;;;;10.00;10.00;;;;;24.71;51.18;100713.62;146611;575;46010;-68
2022/06/30 01:06:32;;;;;;;;;9.75;9.50;;;;;24.78;50.99;100717.97;146607;620;47019;-68
2022/06/30 01:12:42;;;;;;;;;11.50;8.00;;;;;24.88;50.83;100717.00;146612;647;46008;-71
2022/06/30 01:15:34;;;;;;;;;10.75;9.75;;;;;24.96;50.94;100721.41;146612;601;46012;-72
2022/06/30 01:18:27;;;;;;;;;9.00;7.75;;;;;24.01;50.97;100558.56;146609;573;46008;-74
2022/06/30 01:21:22;;;;;;;;;11.00;11.00;;;;;25.01;50.78;100716.91;146609;603;46019;-69
2022/06/30 01:24:14;;;;;;;;;13.00;11.00;;;;;24.97;51.47;100723.16;146608;711;46008;-68
2022/06/30 01:27:06;;;;;;;;;10.75;10.75;;;;;24.89;51.18;100716.13;146609;570;46019;-71
2022/06/30 01:29:58;;;;;;;;;11.00;11.00;;;;;24.84;51.32;100715.28;146609;601;46919;-71
2022/06/30 01:32:50;;;;;;;;;10.25;10.25;;;;;24.82;51.88;100711.75;146612;600;46010;-72
2022/06/30 01:35:43;;;;;;;;;12.75;11.75;;;;;24.78;52.37;100715.31;146607;596;46008;-72
2022/06/30 01:38:35;;;;;;;;;9.75;9.50;;;;;24.71;52.85;100721.56;146610;687;46018;-72
2022/06/30 01:41:27;;;;;;;;;11.25;11.00;;;;;24.65;52.39;100724.25;146609;718;45919;-73
2022/06/30 01:44:20;;;;;;;;;10.75;10.75;;;;;24.62;52.83;100717.19;146612;569;46010;-70
2022/06/30 01:47:13;;;;;;;;;12.00;11.50;;;;;24.61;53.07;100718.09;146608;619;46010;-72
2022/06/30 01:50:08;;;;;;;;;10.00;9.75;;;;;24.58;52.63;100714.56;146609;698;46019;-68
2022/06/30 01:53:01;;;;;;;;;13.00;13.00;;;;;24.57;52.77;100715.47;146606;601;46008;-68
2022/06/30 01:55:53;;;;;;;;;14.75;11.50;;;;;24.55;53.07;100718.13;146610;673;46018;-71
2022/06/30 01:58:45;;;;;;;;;9.75;9.25;;;;;24.55;52.49;100717.22;146611;652;46008;-71
2022/06/30 02:01:37;;;;;;;;;11.75;10.75;;;;;24.53;52.56;100717.25;146612;648;46010;-70
2022/06/30 02:04:47;;;;;;;;;10.50;10.00;;;;;24.49;52.57;100715.53;146611;644;46019;-68
2022/06/30 02:07:40;;;;;;;;;12.25;10.50;;;;;24.43;52.82;100711.13;146611;592;46018;-71
2022/06/30 02:10:32;;;;;;;;;13.25;11.75;;;;;24.40;52.84;100713.78;146607;710;46008;-73
2022/06/30 02:13:24;;;;;;;;;13.75;12.00;;;;;24.37;53.56;100711.13;146605;565;46018;-74
2022/06/30 02:16:17;;;;;;;;;13.00;12.00;;;;;24.32;53.07;100712.03;146603;610;46018;-73
2022/06/30 02:19:09;;;;;;;;;12.25;10.50;;;;;24.26;52.62;100712.06;146612;667;46010;-74
2022/06/30 02:22:01;;;;;;;;;12.00;10.50;;;;;24.27;53.00;100711.19;146611;666;46018;-74
2022/06/30 02:24:53;;;;;;;;;12.00;11.00;;;;;24.26;53.37;100712.06;146610;666;46018;-73
2022/06/30 02:27:45;;;;;;;;;9.25;9.25;;;;;24.21;52.79;100709.47;146611;569;45919;-78
2022/06/30 02:30:38;;;;;;;;;11.25;10.75;;;;;24.17;53.18;100713.91;146613;624;46010;-76
2022/06/30 02:33:30;;;;;;;;;12.75;11.75;;;;;24.11;53.56;100718.31;146609;576;46008;-71
2022/06/30 02:36:22;;;;;;;;;12.75;11.00;;;;;24.05;53.25;100718.34;146607;673;46012;-72
2022/06/30 02:39:15;;;;;;;;;11.00;11.00;;;;;24.02;53.26;100715.72;146605;630;46018;-73
2022/06/30 02:42:07;;;;;;;;;15.25;12.00;;;;;24.00;53.91;100713.09;146611;704;46018;-72
2022/06/30 02:44:59;;;;;;;;;13.50;11.50;;;;;23.96;54.25;100727.22;146601;627;46018;-73
2022/06/30 02:47:51;;;;;;;;;14.00;12.50;;;;;23.91;53.91;100714.00;146610;657;46018;-72
2022/06/30 02:50:46;;;;;;;;;12.25;11.00;;;;;23.89;53.82;100709.59;146606;697;46018;-73
2022/06/30 02:53:38;;;;;;;;;12.25;11.75;;;;;23.87;54.09;100712.25;146608;623;46010;-69
2022/06/30 02:56:30;;;;;;;;;11.50;11.25;;;;;23.84;54.21;100711.37;146608;635;46009;-70
2022/06/30 02:59:22;;;;;;;;;12.00;9.75;;;;;23.78;53.99;100709.62;146608;704;46010;-70
2022/06/30 03:02:15;;;;;;;;;12.50;10.25;;;;;23.74;54.18;100705.25;146604;605;46018;-73
2022/06/30 03:05:07;;;;;;;;;14.25;13.50;;;;;23.69;54.17;100702.59;146607;661;46012;-72
2022/06/30 03:08:00;;;;;;;;;10.25;10.25;;;;;23.66;53.94;100704.34;146605;684;46008;-68
2022/06/30 03:10:52;;;;;;;;;11.50;10.75;;;;;23.70;54.24;100706.12;146606;592;46018;-69
2022/06/30 03:13:47;;;;;;;;;14.50;11.75;;;;;23.75;53.60;100717.59;146635;695;46008;-69
2022/06/30 03:16:39;;;;;;;;;11.75;11.50;;;;;23.77;53.73;100714.91;146633;632;45018;-69
2022/06/30 03:19:31;;;;;;;;;14.50;12.75;;;;;23.74;53.92;100714.06;146626;595;46919;-68
2022/06/30 03:22:23;;;;;;;;;15.75;14.75;;;;;23.73;53.88;100719.34;146633;631;45010;-70
2022/06/30 03:25:16;;;;;;;;;12.00;12.00;;;;;23.70;54.13;100722.00;146635;646;45019;-69
2022/06/30 03:28:08;;;;;;;;;13.50;13.00;;;;;23.67;54.39;100722.84;146632;643;45012;-70
2022/06/30 03:31:01;;;;;;;;;13.75;12.50;;;;;23.63;54.60;100718.47;146635;627;46008;-69
2022/06/30 03:33:52;;;;;;;;;13.50;12.00;;;;;23.61;54.37;100724.63;146630;586;45018;-69
2022/06/30 03:36:45;;;;;;;;;10.50;10.50;;;;;23.60;54.22;100729.06;146634;580;45018;-72
2022/06/30 03:39:37;;;;;;;;;14.75;13.50;;;;;23.63;54.11;100725.53;146630;701;45010;-72
2022/06/30 03:42:29;;;;;;;;;14.50;14.50;;;;;23.65;54.22;100729.06;146633;573;45018;-72
2022/06/30 03:45:21;;;;;;;;;14.50;12.75;;;;;23.67;53.92;100725.50;146626;579;45018;-72
2022/06/30 03:48:14;;;;;;;;;14.75;12.00;;;;;23.70;54.19;100730.81;146631;578;45008;-72
2022/06/30 03:51:07;;;;;;;;;14.75;10.00;;;;;23.72;54.39;100734.34;146639;628;45010;-70
2022/06/30 03:53:59;;;;;;;;;11.75;11.75;;;;;23.74;53.77;100737.00;146625;626;46919;-71
2022/06/30 03:56:50;;;;;;;;;12.00;11.00;;;;;23.78;54.16;100725.53;146629;571;45018;-71
2022/06/30 03:59:43;;;;;;;;;15.75;14.50;;;;;23.83;53.66;100721.09;146626;589;46010;-74
2022/06/30 04:02:36;;;;;;;;;14.00;13.00;;;;;23.88;54.73;100726.38;146629;565;45019;-74
2022/06/30 04:05:28;;;;;;;;;17.25;15.00;;;;;23.89;53.67;100721.03;146630;604;45919;-73
2022/06/30 04:08:20;;;;;;;;;12.00;11.50;;;;;23.91;53.76;100724.59;146630;657;45012;-73
2022/06/30 04:11:12;;;;;;;;;14.50;13.00;;;;;24.00;53.61;100730.75;146630;718;45019;-73
2022/06/30 04:14:04;;;;;;;;;17.00;15.00;;;;;24.17;53.90;100734.19;146609;654;45020;-73
2022/06/30 04:16:56;;;;;;;;;17.50;15.00;;;;;24.35;53.67;100736.75;146605;711;46018;-73
2022/06/30 04:19:48;;;;;;;;;14.00;14.00;;;;;24.55;53.61;100738.44;146602;635;46019;-73
2022/06/30 04:22:40;;;;;;;;;15.00;13.75;;;;;24.75;53.22;100738.34;146606;576;46018;-73
2022/06/30 04:25:33;;;;;;;;;16.50;13.75;;;;;24.94;52.95;100736.44;146608;572;46010;-69
2022/06/30 04:28:25;;;;;;;;;12.75;10.00;;;;;25.12;52.51;100739.84;146609;628;46018;-69
2022/06/30 04:34:27;;;;;;;;;15.50;12.25;;;;;25.44;51.97;100735.16;146603;621;45919;-71
2022/06/30 04:37:20;;;;;;;;;17.50;15.25;;;;;25.52;51.89;100744.78;146608;585;46010;-71
2022/06/30 04:43:41;;;;;;;;;14.50;11.00;;;;;25.86;51.18;100733.84;146611;565;46018;-72
2022/06/30 04:46:33;;;;;;;;;11.25;11.25;;;;;26.09;49.54;100727.38;146606;634;47008;-72
2022/06/30 04:49:25;;;;;;;;;12.75;11.50;;;;;26.24;49.64;100736.03;146608;605;46010;-72
2022/06/30 04:52:17;;;;;;;;;12.00;12.00;;;;;26.45;49.02;100748.16;146608;581;46018;-73
2022/06/30 04:55:11;;;;;;;;;14.75;12.75;;;;;26.64;47.78;100739.97;146606;579;46010;-73
2022/06/30 04:58:03;;;;;;;;;10.00;10.00;;;;;26.81;48.26;100740.56;146609;628;46018;-74
2022/06/30 05:00:55;;;;;;;;;16.25;15.50;;;;;27.00;47.61;100746.47;146605;629;46010;-73
2022/06/30 05:03:47;;;;;;;;;22.50;18.25;;;;;27.18;47.51;100750.66;146605;597;46008;-72
2022/06/30 05:06:39;;;;;;;;;24.75;18.00;;;;;27.40;47.36;100753.84;146607;592;46010;-73
2022/06/30 05:09:31;;;;;;;;;16.00;14.50;;;;;27.61;47.02;100749.91;146604;716;46019;-73
2022/06/30 05:12:23;;;;;;;;;23.00;20.75;;;;;27.83;46.43;100755.75;146605;627;46018;-69
2022/06/30 05:15:15;;;;;;;;;16.50;16.00;;;;;28.02;46.52;100753.59;146604;588;45030;-69
2022/06/30 05:18:08;;;;;;;;;21.00;18.25;;;;;28.20;46.15;100768.34;146604;588;46011;-70
2022/06/30 05:21:00;;;;;;;;;21.00;18.50;;;;;28.36;46.37;100768.87;146601;563;46018;-71
2022/06/30 05:27:07;;;;;;;;;17.25;17.25;;;;;28.63;45.91;100762.97;146602;625;46008;-73
2022/06/30 05:30:00;;;;;;;;;20.75;18.25;;;;;28.79;45.71;100766.16;146605;639;45042;-70
2022/06/30 05:32:52;;;;;;;;;19.25;17.50;;;;;28.92;44.99;100772.09;146603;572;46019;-70
2022/06/30 05:35:44;;;;;;;;;22.00;19.50;;;;;28.96;44.43;100769.28;146602;586;46010;-69
2022/06/30 05:38:37;;;;;;;;;22.75;20.00;;;;;29.02;45.66;100776.31;146601;618;46010;-70
2022/06/30 05:41:29;;;;;;;;;20.75;18.50;;;;;29.13;45.08;100778.72;146604;598;46010;-68
2022/06/30 05:44:21;;;;;;;;;22.25;20.50;;;;;29.27;45.25;100773.03;146601;591;46008;-69
2022/06/30 05:47:14;;;;;;;;;21.50;21.25;;;;;29.39;44.66;100770.94;146605;591;46019;-68
2022/06/30 05:50:06;;;;;;;;;16.75;14.75;;;;;29.49;45.02;100766.22;146603;693;46010;-69
2022/06/30 05:52:58;;;;;;;;;21.25;21.25;;;;;29.60;44.47;100765.97;146602;592;46010;-69
2022/06/30 05:55:51;;;;;;;;;19.50;18.75;;;;;29.69;43.95;100765.75;146603;736;46019;-69
2022/06/30 05:58:45;;;;;;;;;21.25;18.50;;;;;29.77;44.09;100768.19;146604;679;46010;-69
2022/06/30 06:01:37;;;;;;;;;21.00;18.00;;;;;29.83;43.36;100776.03;146604;569;46018;-70
2022/06/30 06:04:29;;;;;;;;;24.50;23.00;;;;;29.92;43.47;100779.34;146602;598;46010;-69
2022/06/30 06:07:21;;;;;;;;;20.75;18.00;;;;;30.02;43.55;100774.59;146599;591;46018;-69
2022/06/30 06:10:14;;;;;;;;;20.00;19.00;;;;;30.10;43.52;100771.72;146601;636;46010;-68
2022/06/30 06:13:09;;;;;;;;;22.50;21.75;;;;;30.20;43.52;100778.59;146600;613;46008;-69
2022/06/30 06:16:01;;;;;;;;;22.25;18.25;;;;;30.33;42.93;100779.97;146603;565;45030;-71
2022/06/30 06:18:53;;;;;;;;;15.00;14.00;;;;;30.43;42.71;100775.22;146604;564;45018;-69
2022/06/30 06:21:45;;;;;;;;;17.75;17.25;;;;;30.56;42.75;100775.72;146603;584;46010;-71
2022/06/30 06:24:37;;;;;;;;;22.50;19.25;;;;;30.72;42.88;100776.16;146603;578;45917;-71
2022/06/30 06:27:29;;;;;;;;;16.75;16.00;;;;;30.88;42.35;100764.06;146604;616;46010;-73
2022/06/30 06:30:22;;;;;;;;;16.50;16.50;;;;;31.08;40.58;100771.41;146602;611;45917;-72
2022/06/30 06:33:14;;;;;;;;;16.00;15.50;;;;;31.17;40.28;100765.75;146603;630;46010;-72
2022/06/30 06:36:07;;;;;;;;;17.00;16.50;;;;;31.15;40.38;100772.94;146602;659;46018;-69
2022/06/30 06:38:59;;;;;;;;;16.75;14.75;;;;;31.15;41.13;100770.28;146602;599;46010;-67
2022/06/30 06:41:51;;;;;;;;;17.25;17.25;;;;;31.23;41.00;100765.56;146602;563;46008;-70
2022/06/30 06:44:43;;;;;;;;;15.00;14.50;;;;;31.36;40.58;100762.50;146608;598;45027;-71
2022/06/30 06:47:35;;;;;;;;;15.25;14.25;;;;;31.46;39.72;100753.19;146604;622;47018;-72
2022/06/30 06:50:27;;;;;;;;;12.75;10.75;;;;;30.45;39.14;100571.84;146610;686;46018;-72
2022/06/30 06:53:19;;;;;;;;;11.25;11.00;;;;;31.57;38.83;100755.53;146604;628;45019;-71
2022/06/30 06:56:11;;;;;;;;;15.75;13.50;;;;;30.79;38.65;100623.34;146608;666;46010;-69
2022/06/30 06:59:04;;;;;;;;;11.50;10.75;;;;;31.67;38.43;100757.81;146611;564;46008;-72
2022/06/30 07:01:56;;;;;;;;;10.50;9.25;;;;;31.81;38.67;100769.81;146608;668;46012;-72
2022/06/30 07:04:48;;;;;;;;;10.50;10.00;;;;;32.00;38.99;100759.37;146607;598;46018;-72
2022/06/30 07:07:43;;;;;;;;;9.75;9.00;;;;;32.20;37.90;100756.78;146610;653;46010;-72
2022/06/30 07:10:35;;;;;;;;;9.00;9.00;;;;;32.34;37.77;100764.34;146609;732;46918;-72
2022/06/30 07:13:31;;;;;;;;;10.00;8.75;;;;;32.42;37.50;100752.34;146610;605;46018;-72
2022/06/30 07:16:23;;;;;;;;;9.00;9.00;;;;;32.45;35.96;100739.78;146615;613;46008;-72
2022/06/30 07:19:16;;;;;;;;;6.75;6.75;;;;;32.55;36.60;100758.13;146615;569;45020;-72
2022/06/30 07:22:08;;;;;;;;;10.25;10.25;;;;;32.67;35.41;100757.66;146607;625;46018;-72
2022/06/30 07:25:00;;;;;;;;;9.25;8.00;;;;;32.73;36.22;100755.66;146614;607;46018;-72
2022/06/30 07:27:52;;;;;;;;;7.00;6.75;;;;;32.81;35.61;100748.19;146614;569;46018;-71
2022/06/30 07:30:45;;;;;;;;;8.00;7.75;;;;;31.93;35.54;100576.34;146610;581;50019;-71
2022/06/30 07:33:38;;;;;;;;;9.50;9.50;;;;;33.08;36.63;100747.03;146608;563;46018;-88
2022/06/30 07:36:32;;;;;;;;;9.00;9.00;;;;;33.22;36.39;100757.22;146607;583;46915;-84
2022/06/30 07:39:29;;;;;;;;;10.50;10.50;;;;;33.34;36.08;100742.41;146609;570;46018;-88
2022/06/30 07:42:22;;;;;;;;;7.75;7.75;;;;;33.44;35.50;100749.13;146612;610;46010;-77
2022/06/30 07:45:15;;;;;;;;;9.00;8.50;;;;;33.55;34.59;100743.28;146611;588;46019;-82
2022/06/30 07:48:09;;;;;;;;;11.00;10.00;;;;;33.61;34.14;100744.84;146612;620;46010;-83
2022/06/30 07:51:01;;;;;;;;;9.75;9.75;;;;;33.65;35.41;100747.34;146607;577;46917;-83
2022/06/30 07:53:53;;;;;;;;;8.50;8.50;;;;;33.73;33.36;100741.59;146611;628;46012;-85
2022/06/30 07:56:45;;;;;;;;;9.50;9.50;;;;;33.77;34.63;100740.50;146611;571;46008;-83
2022/06/30 07:59:37;;;;;;;;;10.00;10.00;;;;;33.83;34.38;100734.00;146611;627;46010;-85
2022/06/30 08:02:29;;;;;;;;;10.00;9.75;;;;;33.94;35.15;100737.06;146611;697;46018;-85
2022/06/30 08:05:21;;;;;;;;;9.75;9.00;;;;;34.09;34.32;100735.53;146613;581;46022;-83
2022/06/30 08:08:14;;;;;;;;;9.50;8.25;;;;;34.18;33.10;100735.09;146610;580;46919;-82
2022/06/30 08:11:07;;;;;;;;;10.00;10.00;;;;;34.21;34.87;100733.16;146611;616;46020;-84
2022/06/30 08:13:59;;;;;;;;;10.75;10.00;;;;;34.31;34.83;100728.19;146633;565;45919;-83
2022/06/30 08:16:52;;;;;;;;;11.00;11.00;;;;;34.48;33.85;100727.38;146632;620;45018;-81
2022/06/30 08:19:44;;;;;;;;;10.50;9.75;;;;;34.66;33.39;100723.81;146629;599;46010;-81
2022/06/30 08:22:36;;;;;;;;;9.50;9.50;;;;;34.76;33.38;100729.63;146632;581;45012;-80
2022/06/30 08:25:29;;;;;;;;;11.50;11.25;;;;;34.82;32.75;100726.62;146633;605;45018;-79
2022/06/30 08:28:21;;;;;;;;;14.00;13.25;;;;;34.91;35.15;100726.16;146617;607;46018;-80
2022/06/30 08:31:15;;;;;;;;;12.50;11.50;;;;;34.90;35.09;100726.25;146632;620;45023;-80
2022/06/30 08:34:07;;;;;;;;;12.25;11.00;;;;;34.75;37.16;100727.88;146633;581;45010;-78
2022/06/30 08:37:00;;;;;;;;;12.00;12.00;;;;;34.59;35.85;100729.59;146631;636;46009;-80
2022/06/30 08:43:03;;;;;;;;;13.00;13.00;;;;;34.37;36.73;100724.34;146627;594;46008;-79
2022/06/30 08:45:56;;;;;;;;;9.75;9.75;;;;;34.36;35.63;100711.81;146631;570;45010;-80
2022/06/30 08:48:49;;;;;;;;;10.50;10.25;;;;;34.40;33.18;100714.28;146628;564;45010;-80
2022/06/30 08:51:42;;;;;;;;;9.50;9.50;;;;;34.46;32.26;100710.44;146635;599;46012;-70
2022/06/30 08:54:36;;;;;;;;;11.00;11.00;;;;;34.44;31.18;100693.47;146634;588;45010;-77
2022/06/30 08:57:29;;;;;;;;;12.00;11.50;;;;;34.56;35.98;100708.19;146632;619;45018;-70
2022/06/30 09:00:22;;;;;;;;;10.50;10.25;;;;;34.49;33.29;100707.59;146630;680;46009;-67
2022/06/30 09:03:14;;;;;;;;;12.50;12.50;;;;;34.40;35.35;100710.75;146631;578;45018;-69
2022/06/30 09:06:08;;;;;;;;;13.00;11.75;;;;;34.39;36.22;100712.53;146631;580;45010;-74
2022/06/30 09:09:00;;;;;;;;;13.00;11.00;;;;;34.53;35.60;100705.63;146634;660;45018;-75
2022/06/30 09:11:58;;;;;;;;;12.00;12.00;;;;;34.70;35.59;100705.69;146622;590;46008;-75
2022/06/30 09:14:51;;;;;;;;;14.00;12.75;;;;;34.53;33.92;100711.91;146609;565;45030;-75
2022/06/30 09:17:53;;;;;;;;;7.00;6.50;;;;;34.16;35.92;100697.50;146612;604;46008;-80
2022/06/30 09:20:46;;;;;;;;;11.00;10.50;;;;;34.11;35.26;100712.09;146609;695;46010;-80
2022/06/30 09:23:38;;;;;;;;;10.25;10.25;;;;;33.99;35.25;100719.78;146602;563;46008;-82
2022/06/30 09:26:31;;;;;;;;;13.00;12.50;;;;;33.91;33.80;100715.69;146606;563;45035;-84
2022/06/30 09:29:26;;;;;;;;;11.25;10.25;;;;;33.90;35.10;100709.44;146602;621;46019;-84
2022/06/30 09:32:18;;;;;;;;;14.75;14.50;;;;;33.74;34.88;100682.38;146606;566;46010;-81
2022/06/30 09:35:12;;;;;;;;;12.25;12.25;;;;;33.94;35.87;100697.59;146604;564;46008;-82
2022/06/30 09:38:12;;;;;;;;;14.75;13.75;;;;;34.12;36.34;100703.97;146607;569;46010;-82
2022/06/30 09:41:08;;;;;;;;;9.75;8.75;;;;;34.08;34.53;100704.16;146610;585;46018;-83
2022/06/30 09:44:00;;;;;;;;;12.25;12.00;;;;;33.90;34.67;100682.56;146602;565;46012;-83
2022/06/30 09:47:07;;;;;;;;;13.75;13.25;;;;;33.91;35.62;100683.41;146605;612;46008;-80
2022/06/30 09:50:08;;;;;;;;;11.50;11.00;;;;;34.18;35.95;100692.91;146605;584;46010;-82
2022/06/30 09:53:27;;;;;;;;;11.00;11.00;;;;;33.43;36.48;100537.72;146606;577;46010;-80
2022/06/30 09:56:20;;;;;;;;;11.00;11.00;;;;;34.48;34.70;100698.63;146601;593;46018;-82
2022/06/30 09:59:13;;;;;;;;;10.75;10.75;;;;;34.59;33.80;100697.28;146604;582;46019;-80
2022/06/30 10:02:08;;;;;;;;;9.50;9.50;;;;;34.57;32.69;100697.34;146611;597;46012;-81
2022/06/30 10:05:02;;;;;;;;;13.50;11.50;;;;;34.43;32.27;100698.00;146603;601;46019;-82
2022/06/30 10:07:54;;;;;;;;;11.00;10.50;;;;;34.38;32.64;100691.94;146612;683;46008;-79
2022/06/30 10:10:47;;;;;;;;;11.75;10.75;;;;;34.37;34.26;100692.03;146606;664;45918;-80
2022/06/30 10:13:46;;;;;;;;;13.25;12.00;;;;;34.20;33.94;100658.72;146601;583;46010;-81
2022/06/30 10:16:42;;;;;;;;;12.00;11.75;;;;;34.34;33.38;100678.72;146607;577;46008;-81
2022/06/30 10:19:34;;;;;;;;;12.00;12.00;;;;;34.29;31.90;100678.94;146608;564;46018;-81
2022/06/30 10:22:29;;;;;;;;;11.75;10.75;;;;;34.10;31.17;100681.63;146604;634;46019;-82
2022/06/30 10:25:22;;;;;;;;;11.00;11.00;;;;;33.97;33.45;100688.50;146605;565;46010;-81
2022/06/30 10:28:14;;;;;;;;;13.00;10.75;;;;;33.78;32.97;100659.78;146604;595;46019;-81
2022/06/30 10:31:25;;;;;;;;;12.25;12.25;;;;;34.00;34.81;100689.25;146604;627;46010;-81
2022/06/30 10:34:24;;;;;;;;;10.25;10.25;;;;;34.12;32.87;100682.44;146608;640;46008;-85
2022/06/30 10:37:37;;;;;;;;;10.25;10.25;;;;;34.19;31.95;100680.34;146602;607;47010;-83
2022/06/30 10:41:07;;;;;;;;;11.50;11.50;;;;;34.37;34.49;100679.44;146611;575;46018;-84
2022/06/30 10:44:29;;;;;;;;;10.00;9.75;;;;;34.34;33.23;100636.53;146611;608;46010;-88
2022/06/30 10:47:27;;;;;;;;;10.25;9.25;;;;;34.66;32.43;100663.72;146606;624;46008;-80
2022/06/30 10:50:47;;;;;;;;;10.50;10.50;;;;;34.75;33.72;100679.41;146604;607;46019;-89
2022/06/30 10:53:59;;;;;;;;;16.50;13.00;;;;;34.69;30.82;100669.81;146601;570;45916;-79
2022/06/30 10:57:09;;;;;;;;;11.00;10.75;;;;;34.61;34.22;100663.94;146607;620;46018;-81
2022/06/30 11:00:01;;;;;;;;;11.50;11.50;;;;;34.54;30.22;100675.94;146599;577;46010;-79
2022/06/30 11:02:53;;;;;;;;;12.00;12.00;;;;;34.47;30.73;100667.28;146604;571;46010;-79
2022/06/30 11:05:55;;;;;;;;;11.75;11.00;;;;;34.46;32.49;100660.16;146609;601;46018;-74
2022/06/30 11:09:01;;;;;;;;;9.75;9.75;;;;;34.49;32.50;100653.75;146608;569;46010;-79
2022/06/30 11:12:01;;;;;;;;;10.75;9.75;;;;;34.50;29.93;100663.56;146604;586;46008;-83
2022/06/30 11:15:20;;;;;;;;;;;;;;;;;;;;;
2022/06/30 11:19:04;;;;;;;;;9.00;8.50;;;;;34.40;29.89;100630.84;146610;668;46008;-76
2022/06/30 11:22:09;;;;;;;;;10.25;9.75;;;;;34.58;31.87;100652.44;146606;579;46012;-81
2022/06/30 11:36:17;;;;;;;;;9.50;9.50;;;;;34.52;30.79;100632.06;146609;575;46023;-77
2022/06/30 11:39:15;;;;;;;;;8.00;8.00;;;;;34.52;31.96;100634.75;146612;593;46010;-77
2022/06/30 11:42:11;;;;;;;;;10.25;10.25;;;;;34.57;32.33;100621.09;146606;574;46010;-75
2022/06/30 11:45:04;;;;;;;;;10.00;10.00;;;;;34.66;30.66;100628.69;146609;604;46008;-75
2022/06/30 11:48:03;;;;;;;;;8.25;8.25;;;;;34.75;31.80;100624.66;146612;594;46018;-83
2022/06/30 11:50:55;;;;;;;;;9.25;9.00;;;;;34.81;30.59;100625.22;146609;586;46019;-77
2022/06/30 11:53:49;;;;;;;;;10.50;10.00;;;;;34.91;29.72;100622.94;146609;571;46010;-78
2022/06/30 11:57:10;;;;;;;;;10.00;10.00;;;;;34.03;29.31;100465.81;146612;583;45019;-79
2022/06/30 12:00:11;;;;;;;;;9.00;9.00;;;;;35.08;31.96;100622.06;146613;569;46010;-83
2022/06/30 12:03:04;;;;;;;;;8.25;8.25;;;;;35.15;29.28;100624.38;146610;683;46917;-78
2022/06/30 12:05:57;;;;;;;;;3.50;3.00;;;;;35.23;30.05;100620.41;146613;675;46010;-76
2022/06/30 12:08:53;;;;;;;;;7.75;7.75;;;;;35.25;31.93;100615.81;146610;654;46008;-79
2022/06/30 12:11:52;;;;;;;;;9.75;8.25;;;;;35.16;33.43;100628.81;146604;564;46011;-82
2022/06/30 12:15:13;;;;;;;;;6.00;6.00;;;;;34.98;32.23;100626.16;146612;609;46008;-75
2022/06/30 12:18:24;;;;;;;;;9.75;9.75;;;;;34.78;33.51;100620.00;146613;571;46018;-76
2022/06/30 12:21:46;;;;;;;;;9.00;8.75;;;;;34.63;33.42;100620.78;146610;615;45916;-72
2022/06/30 12:25:08;;;;;;;;;11.00;10.50;;;;;34.45;34.27;100619.84;146609;741;45030;-71
2022/06/30 12:28:17;;;;;;;;;;;;;;;;;;;;;
2022/06/30 12:31:46;;;;;;;;;10.75;10.75;;;;;34.35;35.49;100614.03;146612;601;46010;-74
2022/06/30 12:39:18;;;;;;;;;11.75;10.75;;;;;34.41;35.91;100604.78;146617;569;45018;-77
2022/06/30 12:46:09;;;;;;;;;10.00;10.00;;;;;34.32;35.09;100587.28;146614;578;46020;-76
2022/06/30 12:49:01;;;;;;;;;11.25;11.25;;;;;34.26;34.77;100595.66;146610;686;45919;-77
2022/06/30 12:51:53;;;;;;;;;12.75;11.50;;;;;34.29;35.42;100589.25;146610;635;46018;-75
2022/06/30 12:55:00;;;;;;;;;10.75;10.75;;;;;34.36;34.92;100598.75;146609;612;46010;-75
2022/06/30 12:57:53;;;;;;;;;10.50;9.00;;;;;34.40;34.09;100589.59;146616;602;46010;-72
2022/06/30 13:00:49;;;;;;;;;9.25;9.25;;;;;34.40;33.89;100586.91;146610;584;45026;-72
2022/06/30 13:04:31;;;;;;;;;9.75;7.75;;;;;34.36;35.34;100580.78;146611;635;45021;-73
2022/06/30 13:07:29;;;;;;;;;9.75;8.50;;;;;34.38;34.75;100588.78;146608;685;46008;-71
2022/06/30 13:11:04;;;;;;;;;10.75;10.75;;;;;34.43;34.31;100593.00;146613;594;45021;-71
2022/06/30 13:13:33;;;;;;;;;11.50;11.50;;;;;34.51;34.10;100597.13;146610;594;45018;-71
2022/06/30 13:16:27;;;;;;;;;9.25;9.25;;;;;34.55;33.17;100609.50;146607;619;46010;-72
2022/06/30 13:19:20;;;;;;;;;11.75;9.75;;;;;34.53;33.77;100606.91;146606;565;46920;-72
2022/06/30 13:22:12;;;;;;;;;11.25;10.25;;;;;34.54;33.03;100613.16;146607;639;46018;-70
2022/06/30 13:25:05;;;;;;;;;11.00;10.00;;;;;34.60;32.08;100612.84;146608;640;46009;-73
2022/06/30 13:27:57;;;;;;;;;9.25;9.25;;;;;34.66;32.39;100618.78;146610;654;46018;-72
2022/06/30 13:30:49;;;;;;;;;11.75;11.75;;;;;34.68;32.83;100624.13;146607;691;46008;-71
2022/06/30 13:33:42;;;;;;;;;11.25;10.75;;;;;34.66;32.35;100628.69;146611;601;46010;-75
2022/06/30 13:36:35;;;;;;;;;12.00;10.25;;;;;34.67;32.69;100619.66;146604;635;46008;-72
2022/06/30 13:39:27;;;;;;;;;10.00;9.25;;;;;34.71;31.52;100624.81;146611;590;45019;-74
2022/06/30 13:42:19;;;;;;;;;10.00;9.50;;;;;34.75;32.16;100620.16;146608;677;46008;-72
2022/06/30 13:45:12;;;;;;;;;9.75;9.00;;;;;34.80;32.00;100619.91;146612;637;46018;-81
2022/06/30 13:48:04;;;;;;;;;11.25;9.50;;;;;34.80;31.20;100620.81;146603;592;46019;-74
2022/06/30 13:51:03;;;;;;;;;12.75;11.75;;;;;34.78;32.12;100621.81;146609;592;45029;-70
2022/06/30 13:54:00;;;;;;;;;12.75;11.25;;;;;34.78;32.24;100611.91;146609;660;46008;-78
2022/06/30 13:56:52;;;;;;;;;4.75;3.50;;;;;34.77;33.65;100594.03;146615;569;46010;-70
2022/06/30 13:59:45;;;;;;;;;10.50;10.50;;;;;34.67;31.84;100587.34;146607;586;46008;-74